This is the latest recevied weather packets stored in our database for station/object SP2WPY-13. If no packets are shown the sender has not sent any weather packets the latest 10 day(s).
| Time | Temp. | Humidity | Pressure | Rain* | Wind** | Luminosity | Snow |
|---|---|---|---|---|---|---|---|
| 1787483135 | 17.22° C | 93% | 1017.7 hPa | - | - | - | - |
| 1787482817 | 17.22° C | 94% | 1017.8 hPa | - | - | - | - |
| 1787482540 | 17.22° C | 90% | 1017.7 hPa | - | - | - | - |
| 1787482222 | 18.33° C | 89% | 1017.7 hPa | - | - | - | - |
| 1787481902 | 17.22° C | 95% | 1017.8 hPa | - | - | - | - |
| 1787481627 | 16.67° C | 100% | 1017.7 hPa | - | - | - | - |
| 1787481307 | 16.11° C | 100% | 1017.8 hPa | - | - | - | - |
| 1787481033 | 16.11° C | 100% | 1017.8 hPa | - | - | - | - |
| 1787480713 | 15.56° C | 100% | 1017.9 hPa | - | - | - | - |
| 1787480439 | 15.56° C | 100% | 1018 hPa | - | - | - | - |
| 1787480119 | 16.11° C | 100% | 1018 hPa | - | - | - | - |
| 1787479847 | 17.22° C | 90% | 1017.6 hPa | - | - | - | - |
| 1787479526 | 17.22° C | 88% | 1017.7 hPa | - | - | - | - |
| 1787479207 | 17.78° C | 85% | 1017.5 hPa | - | - | - | - |
| 1787478932 | 17.78° C | 91% | 1017.5 hPa | - | - | - | - |
| 1787478613 | 16.67° C | 94% | 1017.5 hPa | - | - | - | - |
| 1787478339 | 16.67° C | 94% | 1017.6 hPa | - | - | - | - |
| 1787478019 | 17.22° C | 94% | 1017.5 hPa | - | - | - | - |
| 1787477746 | 16.67° C | 96% | 1017.5 hPa | - | - | - | - |
| 1787477424 | 16.67° C | 96% | 1017.5 hPa | - | - | - | - |
| 1787477104 | 16.11° C | 99% | 1017.5 hPa | - | - | - | - |
| 1787476830 | 16.67° C | 99% | 1017.4 hPa | - | - | - | - |
| 1787476511 | 16.67° C | 99% | 1017.3 hPa | - | - | - | - |
| 1787476237 | 17.22° C | 94% | 1017.4 hPa | - | - | - | - |
| 1787475917 | 17.78° C | 94% | 1017.3 hPa | - | - | - | - |
* Rain since midnight (hover to see other rain measurements)
** Current wind speed in m/s (hover to see current wind gust speed)